sensor_id;sensor_type;location;lat;lon;timestamp;P1;durP1;ratioP1;P2;durP2;ratioP2
6306;SDS011;3186;54.062;9.962;2023-12-20T00:01:49;21.67;;;4.27;;
6306;SDS011;3186;54.062;9.962;2023-12-20T00:04:14;15.00;;;4.00;;
6306;SDS011;3186;54.062;9.962;2023-12-20T00:06:40;11.43;;;3.27;;
6306;SDS011;3186;54.062;9.962;2023-12-20T00:09:05;16.77;;;4.07;;
6306;SDS011;3186;54.062;9.962;2023-12-20T00:11:31;18.47;;;4.17;;
6306;SDS011;3186;54.062;9.962;2023-12-20T00:13:56;20.87;;;4.20;;
6306;SDS011;3186;54.062;9.962;2023-12-20T00:16:22;18.23;;;4.53;;
6306;SDS011;3186;54.062;9.962;2023-12-20T00:18:48;13.90;;;3.73;;
6306;SDS011;3186;54.062;9.962;2023-12-20T00:21:13;27.50;;;5.23;;
6306;SDS011;3186;54.062;9.962;2023-12-20T00:23:39;19.50;;;4.60;;
6306;SDS011;3186;54.062;9.962;2023-12-20T00:26:04;22.73;;;5.30;;
6306;SDS011;3186;54.062;9.962;2023-12-20T00:28:30;17.90;;;4.53;;
6306;SDS011;3186;54.062;9.962;2023-12-20T00:30:55;15.27;;;4.87;;
6306;SDS011;3186;54.062;9.962;2023-12-20T00:33:21;34.07;;;5.87;;
6306;SDS011;3186;54.062;9.962;2023-12-20T00:35:47;32.73;;;5.30;;
6306;SDS011;3186;54.062;9.962;2023-12-20T00:38:13;19.77;;;5.30;;
6306;SDS011;3186;54.062;9.962;2023-12-20T00:40:39;23.47;;;5.43;;
6306;SDS011;3186;54.062;9.962;2023-12-20T00:43:05;26.90;;;5.33;;
6306;SDS011;3186;54.062;9.962;2023-12-20T00:45:30;24.10;;;5.00;;
6306;SDS011;3186;54.062;9.962;2023-12-20T00:47:56;19.30;;;5.23;;
6306;SDS011;3186;54.062;9.962;2023-12-20T00:50:21;25.73;;;4.97;;
6306;SDS011;3186;54.062;9.962;2023-12-20T00:52:47;24.57;;;4.93;;
6306;SDS011;3186;54.062;9.962;2023-12-20T00:55:13;34.03;;;6.00;;
6306;SDS011;3186;54.062;9.962;2023-12-20T00:57:39;22.63;;;4.53;;
6306;SDS011;3186;54.062;9.962;2023-12-20T01:00:05;30.20;;;5.53;;
6306;SDS011;3186;54.062;9.962;2023-12-20T01:02:31;26.50;;;5.20;;
6306;SDS011;3186;54.062;9.962;2023-12-20T01:04:56;21.07;;;4.50;;
6306;SDS011;3186;54.062;9.962;2023-12-20T01:07:22;21.97;;;4.57;;
6306;SDS011;3186;54.062;9.962;2023-12-20T01:09:48;18.43;;;5.00;;
6306;SDS011;3186;54.062;9.962;2023-12-20T01:12:14;20.37;;;4.67;;
6306;SDS011;3186;54.062;9.962;2023-12-20T01:14:40;18.57;;;4.33;;
6306;SDS011;3186;54.062;9.962;2023-12-20T01:17:05;27.27;;;4.83;;
6306;SDS011;3186;54.062;9.962;2023-12-20T01:19:31;32.77;;;5.43;;
6306;SDS011;3186;54.062;9.962;2023-12-20T01:21:57;19.57;;;3.93;;
6306;SDS011;3186;54.062;9.962;2023-12-20T01:24:22;24.80;;;4.60;;
6306;SDS011;3186;54.062;9.962;2023-12-20T01:26:48;17.00;;;4.43;;
6306;SDS011;3186;54.062;9.962;2023-12-20T01:29:13;19.83;;;4.93;;
6306;SDS011;3186;54.062;9.962;2023-12-20T01:31:40;22.27;;;4.80;;
6306;SDS011;3186;54.062;9.962;2023-12-20T01:34:05;29.70;;;4.83;;
6306;SDS011;3186;54.062;9.962;2023-12-20T01:36:31;23.20;;;4.60;;
6306;SDS011;3186;54.062;9.962;2023-12-20T01:38:57;18.40;;;4.50;;
6306;SDS011;3186;54.062;9.962;2023-12-20T01:41:23;16.80;;;4.43;;
6306;SDS011;3186;54.062;9.962;2023-12-20T01:43:48;29.63;;;4.57;;
6306;SDS011;3186;54.062;9.962;2023-12-20T01:46:14;19.43;;;4.83;;
6306;SDS011;3186;54.062;9.962;2023-12-20T01:48:40;27.20;;;4.13;;
6306;SDS011;3186;54.062;9.962;2023-12-20T01:51:06;22.60;;;4.57;;
6306;SDS011;3186;54.062;9.962;2023-12-20T01:53:32;15.03;;;4.23;;
6306;SDS011;3186;54.062;9.962;2023-12-20T01:55:59;17.93;;;4.00;;
6306;SDS011;3186;54.062;9.962;2023-12-20T01:58:24;22.40;;;4.63;;
6306;SDS011;3186;54.062;9.962;2023-12-20T02:00:51;20.97;;;4.63;;
6306;SDS011;3186;54.062;9.962;2023-12-20T02:03:17;20.47;;;4.53;;
6306;SDS011;3186;54.062;9.962;2023-12-20T02:05:43;18.00;;;4.60;;
6306;SDS011;3186;54.062;9.962;2023-12-20T02:08:10;20.67;;;3.87;;
6306;SDS011;3186;54.062;9.962;2023-12-20T02:10:36;12.00;;;3.40;;
6306;SDS011;3186;54.062;9.962;2023-12-20T02:13:03;17.70;;;4.20;;
6306;SDS011;3186;54.062;9.962;2023-12-20T02:15:29;16.07;;;4.37;;
6306;SDS011;3186;54.062;9.962;2023-12-20T02:17:55;18.77;;;4.60;;
6306;SDS011;3186;54.062;9.962;2023-12-20T02:20:21;13.00;;;3.90;;
6306;SDS011;3186;54.062;9.962;2023-12-20T02:22:46;21.60;;;4.60;;
6306;SDS011;3186;54.062;9.962;2023-12-20T02:25:12;23.47;;;4.67;;
6306;SDS011;3186;54.062;9.962;2023-12-20T02:27:38;20.33;;;4.93;;
6306;SDS011;3186;54.062;9.962;2023-12-20T02:30:04;22.13;;;4.53;;
6306;SDS011;3186;54.062;9.962;2023-12-20T02:32:31;16.77;;;4.53;;
6306;SDS011;3186;54.062;9.962;2023-12-20T02:34:57;24.40;;;4.80;;
6306;SDS011;3186;54.062;9.962;2023-12-20T02:37:23;15.07;;;4.03;;
6306;SDS011;3186;54.062;9.962;2023-12-20T02:39:48;15.30;;;3.77;;
6306;SDS011;3186;54.062;9.962;2023-12-20T02:42:14;20.60;;;4.73;;
6306;SDS011;3186;54.062;9.962;2023-12-20T02:44:39;14.47;;;4.27;;
6306;SDS011;3186;54.062;9.962;2023-12-20T02:47:05;17.17;;;4.17;;
6306;SDS011;3186;54.062;9.962;2023-12-20T02:49:31;19.63;;;4.23;;
6306;SDS011;3186;54.062;9.962;2023-12-20T02:51:56;18.17;;;4.17;;
6306;SDS011;3186;54.062;9.962;2023-12-20T02:54:22;15.57;;;3.67;;
6306;SDS011;3186;54.062;9.962;2023-12-20T02:56:47;23.13;;;4.57;;
6306;SDS011;3186;54.062;9.962;2023-12-20T02:59:13;18.37;;;3.80;;
6306;SDS011;3186;54.062;9.962;2023-12-20T03:01:43;17.00;;;3.77;;
6306;SDS011;3186;54.062;9.962;2023-12-20T03:04:10;19.17;;;4.47;;
6306;SDS011;3186;54.062;9.962;2023-12-20T03:06:36;11.80;;;4.13;;
6306;SDS011;3186;54.062;9.962;2023-12-20T03:09:01;22.40;;;4.37;;
6306;SDS011;3186;54.062;9.962;2023-12-20T03:11:27;19.60;;;4.33;;
6306;SDS011;3186;54.062;9.962;2023-12-20T03:13:53;17.53;;;4.30;;
6306;SDS011;3186;54.062;9.962;2023-12-20T03:16:22;14.50;;;4.07;;
6306;SDS011;3186;54.062;9.962;2023-12-20T03:18:48;24.67;;;4.30;;
6306;SDS011;3186;54.062;9.962;2023-12-20T03:21:14;14.73;;;3.33;;
6306;SDS011;3186;54.062;9.962;2023-12-20T03:23:40;21.77;;;3.97;;
6306;SDS011;3186;54.062;9.962;2023-12-20T03:32:49;15.27;;;3.60;;
6306;SDS011;3186;54.062;9.962;2023-12-20T03:35:15;13.97;;;3.70;;
6306;SDS011;3186;54.062;9.962;2023-12-20T03:37:41;20.63;;;4.00;;
6306;SDS011;3186;54.062;9.962;2023-12-20T03:40:06;15.47;;;3.43;;
6306;SDS011;3186;54.062;9.962;2023-12-20T03:42:32;15.50;;;3.67;;
6306;SDS011;3186;54.062;9.962;2023-12-20T03:44:58;14.97;;;3.80;;
6306;SDS011;3186;54.062;9.962;2023-12-20T03:47:23;14.10;;;3.87;;
6306;SDS011;3186;54.062;9.962;2023-12-20T03:49:49;15.80;;;3.53;;
6306;SDS011;3186;54.062;9.962;2023-12-20T03:52:14;13.60;;;3.67;;
6306;SDS011;3186;54.062;9.962;2023-12-20T03:54:40;17.87;;;4.10;;
6306;SDS011;3186;54.062;9.962;2023-12-20T03:57:08;16.83;;;3.53;;
6306;SDS011;3186;54.062;9.962;2023-12-20T03:59:34;14.17;;;3.30;;
6306;SDS011;3186;54.062;9.962;2023-12-20T04:02:01;14.17;;;4.03;;
6306;SDS011;3186;54.062;9.962;2023-12-20T04:04:27;9.93;;;3.30;;
6306;SDS011;3186;54.062;9.962;2023-12-20T04:06:52;10.87;;;2.80;;
6306;SDS011;3186;54.062;9.962;2023-12-20T04:09:18;14.23;;;3.90;;
6306;SDS011;3186;54.062;9.962;2023-12-20T04:11:44;12.00;;;2.80;;
6306;SDS011;3186;54.062;9.962;2023-12-20T04:14:09;13.63;;;3.47;;
6306;SDS011;3186;54.062;9.962;2023-12-20T04:16:35;16.33;;;4.10;;
6306;SDS011;3186;54.062;9.962;2023-12-20T04:19:01;10.40;;;3.57;;
6306;SDS011;3186;54.062;9.962;2023-12-20T04:21:27;13.73;;;3.63;;
6306;SDS011;3186;54.062;9.962;2023-12-20T04:23:53;10.70;;;3.67;;
6306;SDS011;3186;54.062;9.962;2023-12-20T04:26:18;12.27;;;4.20;;
6306;SDS011;3186;54.062;9.962;2023-12-20T04:28:44;18.07;;;3.33;;
6306;SDS011;3186;54.062;9.962;2023-12-20T04:31:09;19.73;;;4.50;;
6306;SDS011;3186;54.062;9.962;2023-12-20T04:33:35;13.90;;;4.03;;
6306;SDS011;3186;54.062;9.962;2023-12-20T04:36:01;15.40;;;4.33;;
6306;SDS011;3186;54.062;9.962;2023-12-20T04:38:26;23.90;;;4.50;;
6306;SDS011;3186;54.062;9.962;2023-12-20T04:40:52;20.90;;;4.27;;
6306;SDS011;3186;54.062;9.962;2023-12-20T04:43:17;13.63;;;4.50;;
6306;SDS011;3186;54.062;9.962;2023-12-20T04:45:43;19.43;;;4.03;;
6306;SDS011;3186;54.062;9.962;2023-12-20T04:48:09;17.87;;;4.50;;
6306;SDS011;3186;54.062;9.962;2023-12-20T04:50:34;18.00;;;4.20;;
6306;SDS011;3186;54.062;9.962;2023-12-20T04:53:00;16.13;;;4.33;;
6306;SDS011;3186;54.062;9.962;2023-12-20T04:55:26;15.23;;;4.53;;
6306;SDS011;3186;54.062;9.962;2023-12-20T04:57:51;15.60;;;4.57;;
6306;SDS011;3186;54.062;9.962;2023-12-20T05:00:17;16.40;;;4.60;;
6306;SDS011;3186;54.062;9.962;2023-12-20T05:02:43;20.83;;;4.83;;
6306;SDS011;3186;54.062;9.962;2023-12-20T05:05:08;17.70;;;5.20;;
6306;SDS011;3186;54.062;9.962;2023-12-20T05:07:34;13.30;;;3.70;;
6306;SDS011;3186;54.062;9.962;2023-12-20T05:10:00;21.90;;;4.50;;
6306;SDS011;3186;54.062;9.962;2023-12-20T05:12:25;11.57;;;3.93;;
6306;SDS011;3186;54.062;9.962;2023-12-20T05:14:51;16.10;;;3.87;;
6306;SDS011;3186;54.062;9.962;2023-12-20T05:17:17;17.20;;;4.23;;
6306;SDS011;3186;54.062;9.962;2023-12-20T05:19:43;16.93;;;3.60;;
6306;SDS011;3186;54.062;9.962;2023-12-20T05:22:09;13.20;;;4.20;;
6306;SDS011;3186;54.062;9.962;2023-12-20T05:24:35;8.67;;;3.57;;
6306;SDS011;3186;54.062;9.962;2023-12-20T05:27:00;14.70;;;4.10;;
6306;SDS011;3186;54.062;9.962;2023-12-20T05:29:26;17.07;;;3.93;;
6306;SDS011;3186;54.062;9.962;2023-12-20T05:31:51;17.10;;;3.60;;
6306;SDS011;3186;54.062;9.962;2023-12-20T05:34:17;12.80;;;3.13;;
6306;SDS011;3186;54.062;9.962;2023-12-20T05:36:43;12.67;;;3.27;;
6306;SDS011;3186;54.062;9.962;2023-12-20T05:39:08;13.20;;;3.43;;
6306;SDS011;3186;54.062;9.962;2023-12-20T05:41:34;15.17;;;3.60;;
6306;SDS011;3186;54.062;9.962;2023-12-20T05:43:59;19.07;;;4.20;;
6306;SDS011;3186;54.062;9.962;2023-12-20T05:46:25;9.37;;;3.33;;
6306;SDS011;3186;54.062;9.962;2023-12-20T05:48:51;10.27;;;3.53;;
6306;SDS011;3186;54.062;9.962;2023-12-20T05:51:17;17.87;;;3.87;;
6306;SDS011;3186;54.062;9.962;2023-12-20T05:53:43;11.70;;;4.40;;
6306;SDS011;3186;54.062;9.962;2023-12-20T05:56:09;15.20;;;4.97;;
6306;SDS011;3186;54.062;9.962;2023-12-20T05:58:35;23.87;;;4.30;;
6306;SDS011;3186;54.062;9.962;2023-12-20T06:01:03;16.90;;;4.97;;
6306;SDS011;3186;54.062;9.962;2023-12-20T06:03:29;18.33;;;4.77;;
6306;SDS011;3186;54.062;9.962;2023-12-20T06:05:55;22.27;;;5.20;;
6306;SDS011;3186;54.062;9.962;2023-12-20T06:08:21;33.33;;;6.30;;
6306;SDS011;3186;54.062;9.962;2023-12-20T06:10:46;19.53;;;5.63;;
6306;SDS011;3186;54.062;9.962;2023-12-20T06:13:12;14.73;;;4.53;;
6306;SDS011;3186;54.062;9.962;2023-12-20T06:15:39;20.30;;;4.53;;
6306;SDS011;3186;54.062;9.962;2023-12-20T06:18:05;20.63;;;4.90;;
6306;SDS011;3186;54.062;9.962;2023-12-20T06:20:32;30.10;;;5.20;;
6306;SDS011;3186;54.062;9.962;2023-12-20T06:22:57;24.17;;;5.93;;
6306;SDS011;3186;54.062;9.962;2023-12-20T06:25:23;31.30;;;6.13;;
6306;SDS011;3186;54.062;9.962;2023-12-20T06:27:49;19.73;;;5.43;;
6306;SDS011;3186;54.062;9.962;2023-12-20T06:30:15;32.23;;;6.33;;
6306;SDS011;3186;54.062;9.962;2023-12-20T06:32:41;19.17;;;5.30;;
6306;SDS011;3186;54.062;9.962;2023-12-20T06:35:08;18.10;;;5.83;;
6306;SDS011;3186;54.062;9.962;2023-12-20T06:37:34;30.13;;;6.17;;
6306;SDS011;3186;54.062;9.962;2023-12-20T06:40:00;20.90;;;5.50;;
6306;SDS011;3186;54.062;9.962;2023-12-20T06:42:26;26.43;;;5.53;;
6306;SDS011;3186;54.062;9.962;2023-12-20T06:44:51;30.70;;;5.50;;
6306;SDS011;3186;54.062;9.962;2023-12-20T06:47:17;18.70;;;5.43;;
6306;SDS011;3186;54.062;9.962;2023-12-20T06:49:43;21.63;;;5.53;;
6306;SDS011;3186;54.062;9.962;2023-12-20T06:52:08;17.47;;;5.03;;
6306;SDS011;3186;54.062;9.962;2023-12-20T06:54:34;31.53;;;5.83;;
6306;SDS011;3186;54.062;9.962;2023-12-20T06:57:00;26.03;;;5.60;;
6306;SDS011;3186;54.062;9.962;2023-12-20T06:59:28;35.90;;;6.07;;
6306;SDS011;3186;54.062;9.962;2023-12-20T07:01:54;20.70;;;5.43;;
6306;SDS011;3186;54.062;9.962;2023-12-20T07:04:19;26.50;;;5.73;;
6306;SDS011;3186;54.062;9.962;2023-12-20T07:06:47;20.03;;;5.53;;
6306;SDS011;3186;54.062;9.962;2023-12-20T07:09:13;28.67;;;5.73;;
6306;SDS011;3186;54.062;9.962;2023-12-20T07:11:39;24.90;;;6.00;;
6306;SDS011;3186;54.062;9.962;2023-12-20T07:14:05;21.83;;;5.03;;
6306;SDS011;3186;54.062;9.962;2023-12-20T07:16:30;21.07;;;5.77;;
6306;SDS011;3186;54.062;9.962;2023-12-20T07:18:56;15.90;;;5.17;;
6306;SDS011;3186;54.062;9.962;2023-12-20T07:21:22;19.87;;;4.50;;
6306;SDS011;3186;54.062;9.962;2023-12-20T07:23:48;18.03;;;4.43;;
6306;SDS011;3186;54.062;9.962;2023-12-20T07:26:13;17.93;;;4.60;;
6306;SDS011;3186;54.062;9.962;2023-12-20T07:28:40;22.13;;;4.87;;
6306;SDS011;3186;54.062;9.962;2023-12-20T07:31:05;27.63;;;5.60;;
6306;SDS011;3186;54.062;9.962;2023-12-20T07:33:31;20.03;;;4.60;;
6306;SDS011;3186;54.062;9.962;2023-12-20T07:35:57;25.43;;;5.53;;
6306;SDS011;3186;54.062;9.962;2023-12-20T07:38:24;18.40;;;5.13;;
6306;SDS011;3186;54.062;9.962;2023-12-20T07:40:50;26.30;;;6.17;;
6306;SDS011;3186;54.062;9.962;2023-12-20T07:43:15;25.00;;;6.03;;
6306;SDS011;3186;54.062;9.962;2023-12-20T07:45:41;26.93;;;5.70;;
6306;SDS011;3186;54.062;9.962;2023-12-20T07:48:07;24.97;;;5.93;;
6306;SDS011;3186;54.062;9.962;2023-12-20T07:50:32;28.00;;;5.80;;
6306;SDS011;3186;54.062;9.962;2023-12-20T07:52:58;20.13;;;5.90;;
6306;SDS011;3186;54.062;9.962;2023-12-20T07:55:25;26.40;;;5.83;;
6306;SDS011;3186;54.062;9.962;2023-12-20T07:57:51;14.77;;;4.97;;
6306;SDS011;3186;54.062;9.962;2023-12-20T08:00:17;25.30;;;5.87;;
6306;SDS011;3186;54.062;9.962;2023-12-20T08:02:43;21.77;;;4.87;;
6306;SDS011;3186;54.062;9.962;2023-12-20T08:05:09;18.17;;;4.07;;
6306;SDS011;3186;54.062;9.962;2023-12-20T08:07:35;14.33;;;4.50;;
6306;SDS011;3186;54.062;9.962;2023-12-20T08:10:00;15.97;;;4.57;;
6306;SDS011;3186;54.062;9.962;2023-12-20T08:12:26;22.00;;;4.73;;
6306;SDS011;3186;54.062;9.962;2023-12-20T08:14:53;23.93;;;5.13;;
6306;SDS011;3186;54.062;9.962;2023-12-20T08:17:19;23.37;;;5.93;;
6306;SDS011;3186;54.062;9.962;2023-12-20T08:19:44;16.67;;;5.03;;
6306;SDS011;3186;54.062;9.962;2023-12-20T08:22:10;15.10;;;4.37;;
6306;SDS011;3186;54.062;9.962;2023-12-20T08:24:36;28.37;;;5.00;;
6306;SDS011;3186;54.062;9.962;2023-12-20T08:27:02;17.20;;;4.63;;
6306;SDS011;3186;54.062;9.962;2023-12-20T08:29:28;16.40;;;3.87;;
6306;SDS011;3186;54.062;9.962;2023-12-20T08:31:54;11.80;;;4.00;;
6306;SDS011;3186;54.062;9.962;2023-12-20T08:34:21;20.00;;;4.40;;
6306;SDS011;3186;54.062;9.962;2023-12-20T08:36:47;18.40;;;4.43;;
6306;SDS011;3186;54.062;9.962;2023-12-20T08:39:12;21.73;;;4.70;;
6306;SDS011;3186;54.062;9.962;2023-12-20T08:41:38;16.93;;;5.17;;
6306;SDS011;3186;54.062;9.962;2023-12-20T08:44:03;29.83;;;5.80;;
6306;SDS011;3186;54.062;9.962;2023-12-20T08:46:29;18.53;;;3.80;;
6306;SDS011;3186;54.062;9.962;2023-12-20T08:48:55;14.30;;;3.33;;
6306;SDS011;3186;54.062;9.962;2023-12-20T08:51:21;11.93;;;3.30;;
6306;SDS011;3186;54.062;9.962;2023-12-20T08:53:48;10.90;;;2.77;;
6306;SDS011;3186;54.062;9.962;2023-12-20T08:56:14;11.90;;;2.57;;
6306;SDS011;3186;54.062;9.962;2023-12-20T08:58:40;7.97;;;2.20;;
6306;SDS011;3186;54.062;9.962;2023-12-20T09:01:07;9.00;;;2.70;;
6306;SDS011;3186;54.062;9.962;2023-12-20T09:03:32;10.60;;;2.80;;
6306;SDS011;3186;54.062;9.962;2023-12-20T09:05:58;10.33;;;2.20;;
6306;SDS011;3186;54.062;9.962;2023-12-20T09:08:24;15.47;;;2.90;;
6306;SDS011;3186;54.062;9.962;2023-12-20T09:10:49;6.30;;;2.30;;
6306;SDS011;3186;54.062;9.962;2023-12-20T09:13:15;6.77;;;2.70;;
6306;SDS011;3186;54.062;9.962;2023-12-20T09:15:41;6.87;;;2.20;;
6306;SDS011;3186;54.062;9.962;2023-12-20T09:18:07;11.60;;;2.83;;
6306;SDS011;3186;54.062;9.962;2023-12-20T09:20:33;8.03;;;2.20;;
6306;SDS011;3186;54.062;9.962;2023-12-20T09:22:59;7.63;;;2.10;;
6306;SDS011;3186;54.062;9.962;2023-12-20T09:25:24;13.83;;;2.73;;
6306;SDS011;3186;54.062;9.962;2023-12-20T09:27:51;8.53;;;2.70;;
6306;SDS011;3186;54.062;9.962;2023-12-20T09:30:17;8.10;;;3.23;;
6306;SDS011;3186;54.062;9.962;2023-12-20T09:32:43;10.20;;;2.43;;
6306;SDS011;3186;54.062;9.962;2023-12-20T09:35:10;8.67;;;2.63;;
6306;SDS011;3186;54.062;9.962;2023-12-20T09:37:35;7.70;;;2.53;;
6306;SDS011;3186;54.062;9.962;2023-12-20T09:40:01;6.10;;;2.00;;
6306;SDS011;3186;54.062;9.962;2023-12-20T09:42:29;11.43;;;2.70;;
6306;SDS011;3186;54.062;9.962;2023-12-20T09:45:08;13.03;;;2.60;;
6306;SDS011;3186;54.062;9.962;2023-12-20T09:47:37;8.70;;;2.43;;
6306;SDS011;3186;54.062;9.962;2023-12-20T09:50:03;11.30;;;2.30;;
6306;SDS011;3186;54.062;9.962;2023-12-20T09:52:28;9.23;;;2.83;;
6306;SDS011;3186;54.062;9.962;2023-12-20T09:54:55;11.57;;;2.90;;
6306;SDS011;3186;54.062;9.962;2023-12-20T09:57:22;13.87;;;2.43;;
6306;SDS011;3186;54.062;9.962;2023-12-20T09:59:47;14.33;;;2.67;;
6306;SDS011;3186;54.062;9.962;2023-12-20T10:02:13;10.70;;;2.67;;
6306;SDS011;3186;54.062;9.962;2023-12-20T10:04:46;7.27;;;2.63;;
6306;SDS011;3186;54.062;9.962;2023-12-20T10:07:15;12.07;;;2.50;;
6306;SDS011;3186;54.062;9.962;2023-12-20T10:09:41;13.73;;;2.53;;
6306;SDS011;3186;54.062;9.962;2023-12-20T10:12:07;13.20;;;2.30;;
6306;SDS011;3186;54.062;9.962;2023-12-20T10:14:33;15.57;;;2.47;;
6306;SDS011;3186;54.062;9.962;2023-12-20T10:17:02;10.80;;;2.87;;
6306;SDS011;3186;54.062;9.962;2023-12-20T10:19:29;10.47;;;2.43;;
6306;SDS011;3186;54.062;9.962;2023-12-20T10:21:54;8.93;;;2.57;;
6306;SDS011;3186;54.062;9.962;2023-12-20T10:24:20;13.07;;;2.90;;
6306;SDS011;3186;54.062;9.962;2023-12-20T10:26:46;10.00;;;2.50;;
6306;SDS011;3186;54.062;9.962;2023-12-20T10:29:12;9.30;;;2.40;;
6306;SDS011;3186;54.062;9.962;2023-12-20T10:31:37;9.40;;;2.30;;
6306;SDS011;3186;54.062;9.962;2023-12-20T10:34:03;9.63;;;2.63;;
6306;SDS011;3186;54.062;9.962;2023-12-20T10:36:30;10.07;;;3.03;;
6306;SDS011;3186;54.062;9.962;2023-12-20T10:38:57;14.03;;;3.03;;
6306;SDS011;3186;54.062;9.962;2023-12-20T10:41:32;10.83;;;2.40;;
6306;SDS011;3186;54.062;9.962;2023-12-20T10:43:59;14.80;;;3.37;;
6306;SDS011;3186;54.062;9.962;2023-12-20T10:46:29;12.77;;;2.97;;
6306;SDS011;3186;54.062;9.962;2023-12-20T10:48:57;9.13;;;2.80;;
6306;SDS011;3186;54.062;9.962;2023-12-20T10:51:23;18.87;;;3.10;;
6306;SDS011;3186;54.062;9.962;2023-12-20T10:53:51;22.30;;;3.07;;
6306;SDS011;3186;54.062;9.962;2023-12-20T10:56:18;11.37;;;3.30;;
6306;SDS011;3186;54.062;9.962;2023-12-20T10:58:45;12.57;;;3.20;;
6306;SDS011;3186;54.062;9.962;2023-12-20T11:01:15;15.17;;;3.10;;
6306;SDS011;3186;54.062;9.962;2023-12-20T11:03:44;15.27;;;3.23;;
6306;SDS011;3186;54.062;9.962;2023-12-20T11:09:17;11.90;;;3.60;;
6306;SDS011;3186;54.062;9.962;2023-12-20T11:12:01;11.23;;;2.77;;
6306;SDS011;3186;54.062;9.962;2023-12-20T11:14:42;6.50;;;2.50;;
6306;SDS011;3186;54.062;9.962;2023-12-20T11:17:10;16.57;;;2.90;;
6306;SDS011;3186;54.062;9.962;2023-12-20T11:22:24;9.77;;;2.60;;
6306;SDS011;3186;54.062;9.962;2023-12-20T11:24:52;10.43;;;2.83;;
6306;SDS011;3186;54.062;9.962;2023-12-20T11:27:18;10.70;;;2.90;;
6306;SDS011;3186;54.062;9.962;2023-12-20T11:29:55;18.23;;;2.83;;
6306;SDS011;3186;54.062;9.962;2023-12-20T11:34:53;14.50;;;3.17;;
6306;SDS011;3186;54.062;9.962;2023-12-20T11:37:19;12.20;;;2.93;;
6306;SDS011;3186;54.062;9.962;2023-12-20T11:39:45;8.53;;;2.53;;
6306;SDS011;3186;54.062;9.962;2023-12-20T11:42:19;31.43;;;13.50;;
6306;SDS011;3186;54.062;9.962;2023-12-20T11:44:45;17.27;;;3.73;;
6306;SDS011;3186;54.062;9.962;2023-12-20T11:47:12;16.63;;;2.97;;
6306;SDS011;3186;54.062;9.962;2023-12-20T11:49:38;13.17;;;3.20;;
6306;SDS011;3186;54.062;9.962;2023-12-20T11:52:05;16.27;;;3.70;;
6306;SDS011;3186;54.062;9.962;2023-12-20T11:54:31;13.83;;;3.57;;
6306;SDS011;3186;54.062;9.962;2023-12-20T11:56:56;15.27;;;3.97;;
6306;SDS011;3186;54.062;9.962;2023-12-20T11:59:23;17.37;;;3.27;;
6306;SDS011;3186;54.062;9.962;2023-12-20T12:01:48;14.73;;;3.70;;
6306;SDS011;3186;54.062;9.962;2023-12-20T12:04:17;20.50;;;3.53;;
6306;SDS011;3186;54.062;9.962;2023-12-20T12:06:44;17.03;;;4.63;;
6306;SDS011;3186;54.062;9.962;2023-12-20T12:09:10;16.47;;;4.13;;
6306;SDS011;3186;54.062;9.962;2023-12-20T12:11:36;15.10;;;4.13;;
6306;SDS011;3186;54.062;9.962;2023-12-20T12:14:02;18.23;;;4.27;;
6306;SDS011;3186;54.062;9.962;2023-12-20T12:16:28;20.87;;;4.67;;
6306;SDS011;3186;54.062;9.962;2023-12-20T12:18:58;16.27;;;4.90;;
6306;SDS011;3186;54.062;9.962;2023-12-20T12:21:24;19.43;;;4.43;;
6306;SDS011;3186;54.062;9.962;2023-12-20T12:23:50;26.37;;;5.60;;
6306;SDS011;3186;54.062;9.962;2023-12-20T12:26:16;18.50;;;4.97;;
6306;SDS011;3186;54.062;9.962;2023-12-20T12:28:41;22.00;;;4.50;;
6306;SDS011;3186;54.062;9.962;2023-12-20T12:31:08;19.53;;;5.10;;
6306;SDS011;3186;54.062;9.962;2023-12-20T12:33:37;33.30;;;6.23;;
6306;SDS011;3186;54.062;9.962;2023-12-20T12:36:03;28.87;;;6.07;;
6306;SDS011;3186;54.062;9.962;2023-12-20T12:38:32;20.17;;;6.00;;
6306;SDS011;3186;54.062;9.962;2023-12-20T12:40:58;22.80;;;5.97;;
6306;SDS011;3186;54.062;9.962;2023-12-20T12:43:25;25.17;;;5.57;;
6306;SDS011;3186;54.062;9.962;2023-12-20T12:45:50;20.20;;;5.37;;
6306;SDS011;3186;54.062;9.962;2023-12-20T12:48:16;20.20;;;5.87;;
6306;SDS011;3186;54.062;9.962;2023-12-20T12:50:42;22.90;;;5.93;;
6306;SDS011;3186;54.062;9.962;2023-12-20T12:53:08;36.20;;;6.87;;
6306;SDS011;3186;54.062;9.962;2023-12-20T12:55:34;16.77;;;5.43;;
6306;SDS011;3186;54.062;9.962;2023-12-20T12:58:01;18.13;;;6.20;;
6306;SDS011;3186;54.062;9.962;2023-12-20T13:00:27;21.60;;;6.47;;
6306;SDS011;3186;54.062;9.962;2023-12-20T13:02:52;23.80;;;6.47;;
6306;SDS011;3186;54.062;9.962;2023-12-20T13:05:18;24.43;;;6.13;;
6306;SDS011;3186;54.062;9.962;2023-12-20T13:07:43;35.43;;;7.23;;
6306;SDS011;3186;54.062;9.962;2023-12-20T13:10:10;27.97;;;6.97;;
6306;SDS011;3186;54.062;9.962;2023-12-20T13:12:36;25.43;;;6.90;;
6306;SDS011;3186;54.062;9.962;2023-12-20T13:15:02;18.50;;;6.57;;
6306;SDS011;3186;54.062;9.962;2023-12-20T13:17:29;29.20;;;6.93;;
6306;SDS011;3186;54.062;9.962;2023-12-20T13:19:54;26.73;;;7.00;;
6306;SDS011;3186;54.062;9.962;2023-12-20T13:22:20;25.07;;;5.80;;
6306;SDS011;3186;54.062;9.962;2023-12-20T13:24:46;20.53;;;6.53;;
6306;SDS011;3186;54.062;9.962;2023-12-20T13:27:11;26.27;;;7.53;;
6306;SDS011;3186;54.062;9.962;2023-12-20T13:29:37;25.47;;;7.47;;
6306;SDS011;3186;54.062;9.962;2023-12-20T13:32:03;24.20;;;7.43;;
6306;SDS011;3186;54.062;9.962;2023-12-20T13:34:29;25.00;;;7.40;;
6306;SDS011;3186;54.062;9.962;2023-12-20T13:36:54;25.20;;;7.77;;
6306;SDS011;3186;54.062;9.962;2023-12-20T13:39:21;27.07;;;8.00;;
6306;SDS011;3186;54.062;9.962;2023-12-20T13:41:49;21.70;;;6.70;;
6306;SDS011;3186;54.062;9.962;2023-12-20T13:44:15;25.37;;;7.63;;
6306;SDS011;3186;54.062;9.962;2023-12-20T13:46:41;32.10;;;7.53;;
6306;SDS011;3186;54.062;9.962;2023-12-20T13:49:07;27.37;;;8.57;;
6306;SDS011;3186;54.062;9.962;2023-12-20T13:51:32;24.50;;;7.23;;
6306;SDS011;3186;54.062;9.962;2023-12-20T13:53:58;24.13;;;6.97;;
6306;SDS011;3186;54.062;9.962;2023-12-20T13:56:24;19.83;;;8.33;;
6306;SDS011;3186;54.062;9.962;2023-12-20T13:58:50;35.40;;;9.33;;
6306;SDS011;3186;54.062;9.962;2023-12-20T14:01:16;28.77;;;9.23;;
6306;SDS011;3186;54.062;9.962;2023-12-20T14:03:42;28.37;;;8.03;;
6306;SDS011;3186;54.062;9.962;2023-12-20T14:06:08;22.80;;;8.13;;
6306;SDS011;3186;54.062;9.962;2023-12-20T14:08:33;35.97;;;8.83;;
6306;SDS011;3186;54.062;9.962;2023-12-20T14:10:59;33.53;;;8.83;;
6306;SDS011;3186;54.062;9.962;2023-12-20T14:13:26;25.80;;;8.00;;
6306;SDS011;3186;54.062;9.962;2023-12-20T14:15:52;33.47;;;9.00;;
6306;SDS011;3186;54.062;9.962;2023-12-20T14:18:19;18.53;;;7.13;;
6306;SDS011;3186;54.062;9.962;2023-12-20T14:20:45;24.07;;;7.07;;
6306;SDS011;3186;54.062;9.962;2023-12-20T14:23:12;26.70;;;7.40;;
6306;SDS011;3186;54.062;9.962;2023-12-20T14:25:40;24.53;;;8.07;;
6306;SDS011;3186;54.062;9.962;2023-12-20T14:28:06;27.30;;;8.03;;
6306;SDS011;3186;54.062;9.962;2023-12-20T14:30:32;18.03;;;7.70;;
6306;SDS011;3186;54.062;9.962;2023-12-20T14:32:58;23.00;;;8.10;;
6306;SDS011;3186;54.062;9.962;2023-12-20T14:35:24;24.00;;;7.67;;
6306;SDS011;3186;54.062;9.962;2023-12-20T14:37:49;22.60;;;7.77;;
6306;SDS011;3186;54.062;9.962;2023-12-20T14:40:15;21.80;;;8.00;;
6306;SDS011;3186;54.062;9.962;2023-12-20T14:42:42;23.37;;;7.50;;
6306;SDS011;3186;54.062;9.962;2023-12-20T14:45:08;21.80;;;7.17;;
6306;SDS011;3186;54.062;9.962;2023-12-20T14:47:34;19.43;;;7.30;;
6306;SDS011;3186;54.062;9.962;2023-12-20T14:50:02;28.13;;;7.90;;
6306;SDS011;3186;54.062;9.962;2023-12-20T14:52:28;16.40;;;6.23;;
6306;SDS011;3186;54.062;9.962;2023-12-20T14:54:54;21.60;;;7.00;;
6306;SDS011;3186;54.062;9.962;2023-12-20T14:57:20;23.30;;;6.90;;
6306;SDS011;3186;54.062;9.962;2023-12-20T14:59:46;25.03;;;7.13;;
6306;SDS011;3186;54.062;9.962;2023-12-20T15:02:11;20.70;;;6.60;;
6306;SDS011;3186;54.062;9.962;2023-12-20T15:04:37;19.67;;;7.13;;
6306;SDS011;3186;54.062;9.962;2023-12-20T15:07:02;23.50;;;7.60;;
6306;SDS011;3186;54.062;9.962;2023-12-20T15:09:31;18.10;;;6.90;;
6306;SDS011;3186;54.062;9.962;2023-12-20T15:11:57;15.30;;;7.23;;